sensor_id;sensor_type;location;lat;lon;timestamp;pressure;altitude;pressure_sealevel;temperature;humidity
10658;BME280;5377;43.276;26.930;2022-10-26T07:04:17;99546.88;;;20.57;66.77
10658;BME280;5377;43.276;26.930;2022-10-26T07:10:24;99425.72;;;20.49;64.16
10658;BME280;5377;43.276;26.930;2022-10-26T07:20:25;99554.13;;;21.95;61.62
10658;BME280;5377;43.276;26.930;2022-10-26T08:31:49;99535.03;;;24.86;44.91
10658;BME280;5377;43.276;26.930;2022-10-26T09:01:53;99557.56;;;24.39;46.14
10658;BME280;5377;43.276;26.930;2022-10-26T09:58:15;99555.19;;;25.06;45.46
10658;BME280;5377;43.276;26.930;2022-10-26T10:00:46;99555.19;;;25.88;44.34
10658;BME280;5377;43.276;26.930;2022-10-26T10:03:18;99523.28;;;26.53;42.29
10658;BME280;5377;43.276;26.930;2022-10-26T10:05:45;99549.84;;;27.28;40.23
10658;BME280;5377;43.276;26.930;2022-10-26T10:08:17;99548.69;;;28.03;38.85
10658;BME280;5377;43.276;26.930;2022-10-26T10:10:55;99526.44;;;28.26;38.10
10658;BME280;5377;43.276;26.930;2022-10-26T10:13:54;99537.72;;;29.19;35.65
10658;BME280;5377;43.276;26.930;2022-10-26T10:16:22;99540.19;;;29.30;35.36
10658;BME280;5377;43.276;26.930;2022-10-26T10:18:53;99423.00;;;29.27;34.69
10658;BME280;5377;43.276;26.930;2022-10-26T10:21:21;99504.09;;;29.97;34.38
10658;BME280;5377;43.276;26.930;2022-10-26T10:23:58;99538.81;;;30.37;33.61
10658;BME280;5377;43.276;26.930;2022-10-26T10:26:25;99498.31;;;30.33;33.32
10658;BME280;5377;43.276;26.930;2022-10-26T10:28:59;99502.06;;;29.63;34.05
10658;BME280;5377;43.276;26.930;2022-10-26T10:31:29;99482.97;;;29.84;33.70
10658;BME280;5377;43.276;26.930;2022-10-26T10:33:57;99526.75;;;29.68;33.55
10658;BME280;5377;43.276;26.930;2022-10-26T10:36:27;99525.44;;;29.57;34.17
10658;BME280;5377;43.276;26.930;2022-10-26T10:42:34;99527.31;;;28.36;35.92
10658;BME280;5377;43.276;26.930;2022-10-26T10:45:05;99435.59;;;28.35;35.30
10658;BME280;5377;43.276;26.930;2022-10-26T10:47:34;99509.41;;;28.83;35.38
10658;BME280;5377;43.276;26.930;2022-10-26T10:50:05;99516.28;;;29.16;34.77
10658;BME280;5377;43.276;26.930;2022-10-26T10:52:34;99483.78;;;29.13;34.26
10658;BME280;5377;43.276;26.930;2022-10-26T10:55:48;99506.81;;;29.40;33.88
10658;BME280;5377;43.276;26.930;2022-10-26T10:58:24;99433.66;;;29.51;33.35
10658;BME280;5377;43.276;26.930;2022-10-26T11:00:55;99499.78;;;30.30;32.98
10658;BME280;5377;43.276;26.930;2022-10-26T11:03:49;99503.50;;;30.17;32.78
10658;BME280;5377;43.276;26.930;2022-10-26T11:06:21;99409.97;;;29.67;32.64
10658;BME280;5377;43.276;26.930;2022-10-26T11:08:52;99471.66;;;29.54;32.95
10658;BME280;5377;43.276;26.930;2022-10-26T11:11:25;99457.31;;;28.81;34.60
10658;BME280;5377;43.276;26.930;2022-10-26T11:13:58;99472.09;;;28.63;34.45
10658;BME280;5377;43.276;26.930;2022-10-26T11:16:30;99503.31;;;29.17;33.95
10658;BME280;5377;43.276;26.930;2022-10-26T11:19:04;99490.25;;;29.40;33.45
10658;BME280;5377;43.276;26.930;2022-10-26T11:21:35;99501.72;;;28.35;35.21
10658;BME280;5377;43.276;26.930;2022-10-26T11:24:10;99505.22;;;28.13;35.53
10658;BME280;5377;43.276;26.930;2022-10-26T11:26:43;99467.06;;;28.07;35.09
10658;BME280;5377;43.276;26.930;2022-10-26T11:29:34;99501.66;;;28.13;35.94
10658;BME280;5377;43.276;26.930;2022-10-26T11:32:13;99446.53;;;27.08;36.54
10658;BME280;5377;43.276;26.930;2022-10-26T11:34:49;99512.59;;;27.90;36.43
10658;BME280;5377;43.276;26.930;2022-10-26T11:37:43;99387.44;;;26.59;36.78
10658;BME280;5377;43.276;26.930;2022-10-26T11:55:17;99502.16;;;26.30;39.46
10658;BME280;5377;43.276;26.930;2022-10-26T12:05:04;99493.50;;;27.25;38.43
10658;BME280;5377;43.276;26.930;2022-10-26T12:11:04;99458.47;;;28.22;36.00
10658;BME280;5377;43.276;26.930;2022-10-26T12:13:35;99477.09;;;28.39;36.30
10658;BME280;5377;43.276;26.930;2022-10-26T12:16:34;99482.72;;;28.92;35.80
10658;BME280;5377;43.276;26.930;2022-10-26T12:23:19;99478.47;;;30.05;33.88
10658;BME280;5377;43.276;26.930;2022-10-26T12:25:47;99483.53;;;30.37;33.85
10658;BME280;5377;43.276;26.930;2022-10-26T12:28:39;99403.53;;;30.15;32.08
10658;BME280;5377;43.276;26.930;2022-10-26T12:31:39;99475.22;;;30.81;32.35
10658;BME280;5377;43.276;26.930;2022-10-26T12:34:10;99475.25;;;31.36;31.08
10658;BME280;5377;43.276;26.930;2022-10-26T12:36:49;99480.78;;;31.36;30.32
10658;BME280;5377;43.276;26.930;2022-10-26T12:39:29;99458.13;;;31.43;29.75
10658;BME280;5377;43.276;26.930;2022-10-26T12:41:58;99463.03;;;31.37;29.66
10658;BME280;5377;43.276;26.930;2022-10-26T12:44:37;99482.50;;;31.49;29.71
10658;BME280;5377;43.276;26.930;2022-10-26T12:54:14;99477.03;;;32.20;28.79
10658;BME280;5377;43.276;26.930;2022-10-26T12:57:21;99412.91;;;31.30;28.99
10658;BME280;5377;43.276;26.930;2022-10-26T13:00:26;99420.03;;;31.40;28.33
10658;BME280;5377;43.276;26.930;2022-10-26T13:33:28;99472.84;;;31.55;27.53
10658;BME280;5377;43.276;26.930;2022-10-26T13:40:40;99488.00;;;31.20;28.51
10658;BME280;5377;43.276;26.930;2022-10-26T14:10:50;99533.06;;;30.17;30.21
10658;BME280;5377;43.276;26.930;2022-10-26T14:13:24;99494.88;;;30.10;30.17
10658;BME280;5377;43.276;26.930;2022-10-26T14:15:57;99510.00;;;30.04;30.45
10658;BME280;5377;43.276;26.930;2022-10-26T14:18:31;99516.75;;;29.89;30.61
10658;BME280;5377;43.276;26.930;2022-10-26T14:24:22;99425.44;;;29.29;30.02
10658;BME280;5377;43.276;26.930;2022-10-26T14:26:51;99492.00;;;29.75;29.96
10658;BME280;5377;43.276;26.930;2022-10-26T14:29:22;99506.75;;;29.54;30.59
10658;BME280;5377;43.276;26.930;2022-10-26T14:31:50;99516.19;;;29.61;29.87
10658;BME280;5377;43.276;26.930;2022-10-26T14:34:19;99524.97;;;29.72;30.44
10658;BME280;5377;43.276;26.930;2022-10-26T14:36:50;99503.69;;;29.33;30.30
10658;BME280;5377;43.276;26.930;2022-10-26T14:39:28;99331.50;;;28.32;30.36
10658;BME280;5377;43.276;26.930;2022-10-26T14:42:02;99529.53;;;29.37;30.94
10658;BME280;5377;43.276;26.930;2022-10-26T14:44:31;99542.97;;;28.63;31.46
10658;BME280;5377;43.276;26.930;2022-10-26T14:47:03;99534.28;;;28.19;32.40
10658;BME280;5377;43.276;26.930;2022-10-26T14:49:31;99549.53;;;27.76;33.48
10658;BME280;5377;43.276;26.930;2022-10-26T14:52:03;99524.03;;;27.10;34.27
10658;BME280;5377;43.276;26.930;2022-10-26T14:54:36;99560.78;;;26.63;35.72
10658;BME280;5377;43.276;26.930;2022-10-26T15:06:47;99563.19;;;24.63;39.79
10658;BME280;5377;43.276;26.930;2022-10-26T15:09:37;99557.03;;;24.27;40.45
10658;BME280;5377;43.276;26.930;2022-10-26T15:12:06;99570.59;;;24.03;41.44
10658;BME280;5377;43.276;26.930;2022-10-26T15:14:43;99583.28;;;23.74;42.07
10658;BME280;5377;43.276;26.930;2022-10-26T15:17:17;99517.22;;;22.85;43.29
10658;BME280;5377;43.276;26.930;2022-10-26T15:20:02;99589.63;;;23.03;44.03
10658;BME280;5377;43.276;26.930;2022-10-26T15:25:53;99549.84;;;22.14;45.64
10658;BME280;5377;43.276;26.930;2022-10-26T15:28:24;99603.66;;;22.29;46.21
10658;BME280;5377;43.276;26.930;2022-10-26T15:31:28;99611.69;;;21.98;47.08
10658;BME280;5377;43.276;26.930;2022-10-26T15:37:23;99628.19;;;21.76;48.56
10658;BME280;5377;43.276;26.930;2022-10-26T15:43:12;99619.47;;;21.37;49.67
10658;BME280;5377;43.276;26.930;2022-10-26T15:55:55;99619.00;;;20.81;52.33
10658;BME280;5377;43.276;26.930;2022-10-26T16:01:44;99651.75;;;20.65;53.54
10658;BME280;5377;43.276;26.930;2022-10-26T16:04:50;99642.16;;;20.57;54.01
10658;BME280;5377;43.276;26.930;2022-10-26T16:07:19;99577.38;;;19.88;55.21
10658;BME280;5377;43.276;26.930;2022-10-26T16:13:11;99648.06;;;20.32;55.57
10658;BME280;5377;43.276;26.930;2022-10-26T16:19:15;99663.66;;;20.15;57.01
10658;BME280;5377;43.276;26.930;2022-10-26T16:25:08;99634.72;;;19.70;58.85
10658;BME280;5377;43.276;26.930;2022-10-26T16:27:35;99694.91;;;19.96;59.38
10658;BME280;5377;43.276;26.930;2022-10-26T16:30:02;99652.91;;;19.86;59.04
10658;BME280;5377;43.276;26.930;2022-10-26T16:32:30;99683.59;;;20.04;59.20
10658;BME280;5377;43.276;26.930;2022-10-26T16:42:25;99686.53;;;19.80;59.79
10658;BME280;5377;43.276;26.930;2022-10-26T16:44:52;99694.56;;;19.53;61.73
10658;BME280;5377;43.276;26.930;2022-10-26T16:47:19;99621.09;;;19.15;61.47
10658;BME280;5377;43.276;26.930;2022-10-26T16:49:46;99710.25;;;19.85;60.42
10658;BME280;5377;43.276;26.930;2022-10-26T16:52:14;99614.00;;;18.97;61.53
10658;BME280;5377;43.276;26.930;2022-10-26T16:54:41;99585.69;;;18.93;61.09
10658;BME280;5377;43.276;26.930;2022-10-26T16:57:08;99720.16;;;19.57;62.64
10658;BME280;5377;43.276;26.930;2022-10-26T16:59:36;99670.31;;;19.18;63.01
10658;BME280;5377;43.276;26.930;2022-10-26T17:02:05;99642.81;;;18.69;64.46
10658;BME280;5377;43.276;26.930;2022-10-26T17:04:32;99648.53;;;19.01;62.50
10658;BME280;5377;43.276;26.930;2022-10-26T17:06:59;99626.56;;;18.86;62.18
10658;BME280;5377;43.276;26.930;2022-10-26T17:09:26;99620.66;;;18.89;62.67
10658;BME280;5377;43.276;26.930;2022-10-26T17:11:57;99595.81;;;18.52;63.47
10658;BME280;5377;43.276;26.930;2022-10-26T17:14:25;99608.59;;;18.68;64.14
10658;BME280;5377;43.276;26.930;2022-10-26T17:16:53;99724.13;;;19.38;63.32
10658;BME280;5377;43.276;26.930;2022-10-26T17:19:20;99752.00;;;19.45;64.03
10658;BME280;5377;43.276;26.930;2022-10-26T17:21:47;99747.75;;;19.21;64.39
10658;BME280;5377;43.276;26.930;2022-10-26T17:24:14;99669.56;;;18.78;64.12
10658;BME280;5377;43.276;26.930;2022-10-26T17:30:03;99725.59;;;19.12;64.01
10658;BME280;5377;43.276;26.930;2022-10-26T17:32:32;99763.78;;;19.22;64.64
10658;BME280;5377;43.276;26.930;2022-10-26T17:34:59;99613.53;;;18.43;64.90
10658;BME280;5377;43.276;26.930;2022-10-26T17:37:26;99573.94;;;18.30;63.97
10658;BME280;5377;43.276;26.930;2022-10-26T17:39:53;99758.28;;;19.34;64.72
10658;BME280;5377;43.276;26.930;2022-10-26T17:42:21;99679.28;;;18.74;65.10
10658;BME280;5377;43.276;26.930;2022-10-26T17:44:48;99756.38;;;19.18;65.77
10658;BME280;5377;43.276;26.930;2022-10-26T17:47:15;99737.31;;;19.01;66.21
10658;BME280;5377;43.276;26.930;2022-10-26T17:49:44;99712.69;;;18.91;65.25
10658;BME280;5377;43.276;26.930;2022-10-26T17:52:11;99711.06;;;18.90;65.26
10658;BME280;5377;43.276;26.930;2022-10-26T17:54:39;99696.00;;;18.70;66.73
10658;BME280;5377;43.276;26.930;2022-10-26T17:57:06;99757.97;;;19.02;67.35
10658;BME280;5377;43.276;26.930;2022-10-26T17:59:35;99770.13;;;19.11;67.08
10658;BME280;5377;43.276;26.930;2022-10-26T18:02:03;99730.59;;;18.75;67.63
10658;BME280;5377;43.276;26.930;2022-10-26T18:04:31;99787.50;;;18.98;68.03
10658;BME280;5377;43.276;26.930;2022-10-26T18:14:33;99758.78;;;18.74;68.68
10658;BME280;5377;43.276;26.930;2022-10-26T18:34:44;99782.66;;;18.25;70.71
10658;BME280;5377;43.276;26.930;2022-10-26T18:47:27;99809.06;;;18.06;70.87
10658;BME280;5377;43.276;26.930;2022-10-26T18:53:40;99818.72;;;18.02;72.19
10658;BME280;5377;43.276;26.930;2022-10-26T19:03:16;99767.66;;;17.34;74.40
10658;BME280;5377;43.276;26.930;2022-10-26T19:05:43;99771.75;;;17.25;75.47
10658;BME280;5377;43.276;26.930;2022-10-26T19:08:10;99825.56;;;17.63;74.66
10658;BME280;5377;43.276;26.930;2022-10-26T19:10:39;99822.56;;;17.41;75.68
10658;BME280;5377;43.276;26.930;2022-10-26T19:16:55;99835.50;;;17.39;77.11
10658;BME280;5377;43.276;26.930;2022-10-26T19:19:22;99815.03;;;17.13;77.77
10658;BME280;5377;43.276;26.930;2022-10-26T19:21:49;99839.09;;;17.52;74.82
10658;BME280;5377;43.276;26.930;2022-10-26T19:24:18;99842.00;;;17.38;76.70
10658;BME280;5377;43.276;26.930;2022-10-26T19:26:47;99835.06;;;17.24;76.14
